This is the latest recevied weather packets stored in our database for station/object EA5DFV. If no packets are shown the sender has not sent any weather packets the latest 1 day(s).
| Time | Temp. | Humidity | Pressure | Rain* | Wind** | Luminosity | Snow |
|---|---|---|---|---|---|---|---|
| 1778097820 | 16.11° C | 78% | 1011.2 hPa | 0 mm | - | 0 W/m² | - |
| 1778096608 | 16.11° C | 77% | 1010.9 hPa | 0 mm | - | 0 W/m² | - |
| 1778096013 | 16.11° C | 76% | 1010.9 hPa | 0 mm | - | 0 W/m² | - |
| 1778095707 | 16.11° C | 76% | 1010.9 hPa | 0 mm | - | 0 W/m² | - |
| 1778095113 | 16.11° C | 76% | 1010.8 hPa | 0 mm | - | 0 W/m² | - |
| 1778094517 | 16.67° C | 75% | 1010.6 hPa | 0 mm | - | 0 W/m² | - |
| 1778093306 | 16.67° C | 75% | 1010.8 hPa | 0 mm | - | 9 W/m² | - |
| 1778093016 | 17.22° C | 74% | 1010.8 hPa | 0 mm | - | 12 W/m² | - |
| 1778092403 | 17.22° C | 74% | 1010.8 hPa | 0 mm | - | 19 W/m² | - |
| 1778091804 | 17.78° C | 73% | 1010.6 hPa | 0 mm | - | 30 W/m² | - |
| 1778089113 | 18.33° C | 69% | 1010.4 hPa | 0 mm | - | 60 W/m² | - |
| 1778087920 | 18.89° C | 68% | 1010.4 hPa | 0 mm | - | 93 W/m² | - |
| 1778087613 | 18.89° C | 68% | 1010.4 hPa | 0 mm | - | 74 W/m² | - |
| 1778087017 | 19.44° C | 69% | 1010.4 hPa | 0 mm | - | 156 W/m² | - |
| 1778086404 | 19.44° C | 70% | 1010.5 hPa | 0 mm | - | 269 W/m² | - |
| 1778085520 | 19.44° C | 69% | 1010.5 hPa | 0 mm | - | 98 W/m² | - |
| 1778084308 | 20° C | 67% | 1010.5 hPa | 0 mm | - | 181 W/m² | - |
| 1778083713 | 20° C | 67% | 1010.5 hPa | 0 mm | - | 148 W/m² | - |
| 1778082513 | 20.56° C | 66% | 1010.4 hPa | 0 mm | - | 318 W/m² | - |
| 1778080720 | 20.56° C | 66% | 1010.5 hPa | 0 mm | - | 740 W/m² | - |
| 1778078913 | 18.89° C | 69% | 1010.7 hPa | 0 mm | - | 236 W/m² | - |
| 1778078317 | 18.89° C | 69% | 1010.7 hPa | 0 mm | - | 172 W/m² | - |
| 1778077704 | 18.89° C | 69% | 1010.9 hPa | 0 mm | - | 185 W/m² | - |
| 1778076816 | 18.89° C | 70% | 1011.2 hPa | 0 mm | - | 206 W/m² | - |
| 1778076223 | 18.89° C | 70% | 1011.1 hPa | 0 mm | - | 236 W/m² | - |
* Rain latest hour (hover to see other rain measurements)
** Current wind speed in m/s (hover to see current wind gust speed)